createdAt,value
2018-07-12T00:00:18.436Z,11.53
2018-07-12T00:01:18.418Z,11.6
2018-07-12T00:02:18.419Z,11.57
2018-07-12T00:03:18.405Z,11.56
2018-07-12T00:04:18.393Z,11.56
2018-07-12T00:05:18.388Z,11.57
2018-07-12T00:06:18.378Z,11.6
2018-07-12T00:07:18.113Z,11.6
2018-07-12T00:08:18.367Z,11.61
2018-07-12T00:09:18.349Z,11.59
2018-07-12T00:10:18.346Z,11.71
2018-07-12T00:11:18.335Z,11.67
2018-07-12T00:12:18.334Z,11.68
2018-07-12T00:13:18.324Z,11.66
2018-07-12T00:14:18.330Z,11.66
2018-07-12T00:15:18.302Z,11.81
2018-07-12T00:16:18.041Z,11.73
2018-07-12T00:17:18.297Z,11.78
2018-07-12T00:18:18.023Z,11.82
2018-07-12T00:19:18.277Z,11.88
2018-07-12T00:20:18.265Z,11.91
2018-07-12T00:21:18.010Z,11.88
2018-07-12T00:22:18.249Z,11.91
2018-07-12T00:23:18.248Z,11.91
2018-07-12T00:24:18.241Z,12.01
2018-07-12T00:25:18.232Z,11.95
2018-07-12T00:26:18.218Z,12.01
2018-07-12T00:27:17.950Z,12.01
2018-07-12T00:28:18.199Z,12
2018-07-12T00:29:17.932Z,11.98
2018-07-12T00:30:18.187Z,11.97
2018-07-12T00:31:18.179Z,12.03
2018-07-12T00:32:18.168Z,12.04
2018-07-12T00:33:18.177Z,12.04
2018-07-12T00:34:18.158Z,12.04
2018-07-12T00:35:17.894Z,12.04
2018-07-12T00:36:18.144Z,12.08
2018-07-12T00:37:18.134Z,12.07
2018-07-12T00:38:18.120Z,12.07
2018-07-12T00:39:18.121Z,12.08
2018-07-12T00:40:17.853Z,12.07
2018-07-12T00:41:18.100Z,12.11
2018-07-12T00:42:18.096Z,12.07
2018-07-12T00:43:18.093Z,12.16
2018-07-12T00:44:18.079Z,12.15
2018-07-12T00:45:17.811Z,12.18
2018-07-12T00:46:18.061Z,12.13
2018-07-12T00:47:18.050Z,12.19
2018-07-12T00:48:18.044Z,12.15
2018-07-12T00:49:18.039Z,12.18
2018-07-12T00:50:18.034Z,12.16
2018-07-12T00:51:18.021Z,12.23
2018-07-12T00:52:18.016Z,12.11
2018-07-12T00:53:18.010Z,12.13
2018-07-12T00:54:17.995Z,12.19
2018-07-12T00:55:18.003Z,12.16
2018-07-12T00:56:17.979Z,12.13
2018-07-12T00:57:17.976Z,12.18
2018-07-12T00:58:17.973Z,12.16
2018-07-12T00:59:17.958Z,12.15
2018-07-12T01:00:17.952Z,12.13
2018-07-12T01:01:17.944Z,12.15
2018-07-12T01:02:17.939Z,12.15
2018-07-12T01:03:17.940Z,12.18
2018-07-12T01:04:17.929Z,12.15
2018-07-12T01:05:17.917Z,12.15
2018-07-12T01:06:17.909Z,12.16
2018-07-12T01:07:17.896Z,12.19
2018-07-12T01:08:17.893Z,12.19
2018-07-12T01:09:17.886Z,12.16
2018-07-12T01:10:17.874Z,12.18
2018-07-12T01:11:17.611Z,12.16
2018-07-12T01:12:17.605Z,12.2
2018-07-12T01:13:17.859Z,12.18
2018-07-12T01:14:17.845Z,12.23
2018-07-12T01:15:17.838Z,12.23
2018-07-12T01:16:17.569Z,12.28
2018-07-12T01:17:17.824Z,12.22
2018-07-12T01:18:17.814Z,12.2
2018-07-12T01:19:17.807Z,12.23
2018-07-12T01:20:17.798Z,12.25
2018-07-12T01:21:17.791Z,12.26
2018-07-12T01:22:17.525Z,12.25
2018-07-12T01:23:17.261Z,12.29
2018-07-12T01:24:17.768Z,12.31
2018-07-12T01:25:17.764Z,12.28
2018-07-12T01:26:17.757Z,12.37
2018-07-12T01:27:17.739Z,12.31
2018-07-12T01:28:17.735Z,12.29
2018-07-12T01:29:17.472Z,12.37
2018-07-12T01:30:17.723Z,12.31
2018-07-12T01:31:17.714Z,12.28
2018-07-12T01:32:17.444Z,12.36
2018-07-12T01:33:17.694Z,12.33
2018-07-12T01:34:17.688Z,12.34
2018-07-12T01:35:17.679Z,12.37
2018-07-12T01:36:17.836Z,12.34
2018-07-12T01:37:17.669Z,12.28
2018-07-12T01:38:17.661Z,12.38
2018-07-12T01:39:17.649Z,12.34
2018-07-12T01:40:17.648Z,12.28
2018-07-12T01:41:17.632Z,12.33
2018-07-12T01:42:17.640Z,12.31
2018-07-12T01:43:17.619Z,12.41
2018-07-12T01:44:17.359Z,12.41
2018-07-12T01:45:17.355Z,12.43
2018-07-12T01:46:17.599Z,12.47
2018-07-12T01:47:17.596Z,12.47
2018-07-12T01:48:17.581Z,12.43
2018-07-12T01:49:17.573Z,12.45
2018-07-12T01:50:17.562Z,12.44
2018-07-12T01:51:17.557Z,12.36
2018-07-12T01:52:17.554Z,12.41
2018-07-12T01:53:17.549Z,12.41
2018-07-12T01:54:17.287Z,12.31
2018-07-12T01:55:17.274Z,12.34
2018-07-12T01:56:17.524Z,12.36
2018-07-12T01:57:17.516Z,12.25
2018-07-12T01:58:17.506Z,12.31
2018-07-12T01:59:17.502Z,12.41
2018-07-12T02:00:17.492Z,12.28
2018-07-12T02:01:17.483Z,12.44
2018-07-12T02:02:17.476Z,12.37
2018-07-12T02:03:17.466Z,12.29
2018-07-12T02:04:17.205Z,12.36
2018-07-12T02:05:17.451Z,12.34
2018-07-12T02:06:17.447Z,12.34
2018-07-12T02:07:17.438Z,12.29
2018-07-12T02:08:17.430Z,12.23
2018-07-12T02:09:17.170Z,12.2
2018-07-12T02:10:17.416Z,12.2
2018-07-12T02:11:17.408Z,12.23
2018-07-12T02:12:17.139Z,12.22
2018-07-12T02:13:17.405Z,12.22
2018-07-12T02:14:17.389Z,12.26
2018-07-12T02:15:17.121Z,12.18
2018-07-12T02:16:17.113Z,12.22
2018-07-12T02:17:17.365Z,12.28
2018-07-12T02:18:17.354Z,12.29
2018-07-12T02:19:17.099Z,12.31
2018-07-12T02:20:17.348Z,12.28
2018-07-12T02:21:17.329Z,12.33
2018-07-12T02:22:17.325Z,12.31
2018-07-12T02:23:17.317Z,12.29
2018-07-12T02:24:17.303Z,12.33
2018-07-12T02:25:17.304Z,12.31
2018-07-12T02:26:17.296Z,12.33
2018-07-12T02:27:17.282Z,12.36
2018-07-12T02:28:17.277Z,12.34
2018-07-12T02:29:17.270Z,12.28
2018-07-12T02:30:17.262Z,12.36
2018-07-12T02:31:17.004Z,12.31
2018-07-12T02:32:17.254Z,12.28
2018-07-12T02:33:16.991Z,12.29
2018-07-12T02:34:16.992Z,12.25
2018-07-12T02:35:17.500Z,12.28
2018-07-12T02:36:17.232Z,12.37
2018-07-12T02:37:17.208Z,12.44
2018-07-12T02:38:17.200Z,12.37
2018-07-12T02:39:16.953Z,12.45
2018-07-12T02:40:17.193Z,12.43
2018-07-12T02:41:17.186Z,12.47
2018-07-12T02:42:17.177Z,12.47
2018-07-12T02:43:17.165Z,12.51
2018-07-12T02:44:17.160Z,12.53
2018-07-12T02:45:17.147Z,12.44
2018-07-12T02:46:16.885Z,12.52
2018-07-12T02:47:17.137Z,12.52
2018-07-12T02:48:16.870Z,12.52
2018-07-12T02:49:17.122Z,12.56
2018-07-12T02:50:16.858Z,12.48
2018-07-12T02:51:17.107Z,12.51
2018-07-12T02:52:17.096Z,12.52
2018-07-12T02:53:17.093Z,12.52
2018-07-12T02:54:17.092Z,12.61
2018-07-12T02:55:17.077Z,12.62
2018-07-12T02:56:16.815Z,12.59
2018-07-12T02:57:17.065Z,12.61
2018-07-12T02:58:16.795Z,12.63
2018-07-12T02:59:17.044Z,12.58
2018-07-12T03:00:17.044Z,12.61
2018-07-12T03:01:16.769Z,12.66
2018-07-12T03:02:17.033Z,12.7
2018-07-12T03:03:17.016Z,12.65
2018-07-12T03:04:16.761Z,12.65
2018-07-12T03:05:17.001Z,12.74
2018-07-12T03:06:16.992Z,12.69
2018-07-12T03:07:16.730Z,12.66
2018-07-12T03:08:16.720Z,12.7
2018-07-12T03:09:16.718Z,12.77
2018-07-12T03:10:16.962Z,12.77
2018-07-12T03:11:16.701Z,12.76
2018-07-12T03:12:16.948Z,12.71
2018-07-12T03:13:16.941Z,12.7
2018-07-12T03:14:16.940Z,12.78
2018-07-12T03:15:16.927Z,12.71
2018-07-12T03:16:16.921Z,12.76
2018-07-12T03:17:16.916Z,12.73
2018-07-12T03:18:16.647Z,12.78
2018-07-12T03:19:16.896Z,12.77
2018-07-12T03:20:16.897Z,12.78
2018-07-12T03:21:16.627Z,12.76
2018-07-12T03:22:16.874Z,12.76
2018-07-12T03:23:16.864Z,12.78
2018-07-12T03:24:16.860Z,12.73
2018-07-12T03:25:16.854Z,12.73
2018-07-12T03:26:16.845Z,12.76
2018-07-12T03:27:16.834Z,12.73
2018-07-12T03:28:16.832Z,12.78
2018-07-12T03:29:16.827Z,12.73
2018-07-12T03:30:16.828Z,12.77
2018-07-12T03:31:16.556Z,12.66
2018-07-12T03:32:16.801Z,12.71
2018-07-12T03:33:16.792Z,12.7
2018-07-12T03:34:16.803Z,12.73
2018-07-12T03:35:16.779Z,12.71
2018-07-12T03:36:16.766Z,12.77
2018-07-12T03:37:16.763Z,12.76
2018-07-12T03:38:16.755Z,12.73
2018-07-12T03:39:16.497Z,12.78
2018-07-12T03:40:16.480Z,12.73
2018-07-12T03:41:16.753Z,12.76
2018-07-12T03:42:16.726Z,12.7
2018-07-12T03:43:16.719Z,12.77
2018-07-12T03:44:16.710Z,12.74
2018-07-12T03:45:16.705Z,12.78
2018-07-12T03:46:16.696Z,12.77
2018-07-12T03:47:16.703Z,12.74
2018-07-12T03:48:16.682Z,12.71
2018-07-12T03:49:16.157Z,12.73
2018-07-12T03:50:16.422Z,12.66
2018-07-12T03:51:16.657Z,12.62
2018-07-12T03:52:16.397Z,12.59
2018-07-12T03:53:16.386Z,12.58
2018-07-12T03:54:16.378Z,12.59
2018-07-12T03:55:16.635Z,12.69
2018-07-12T03:56:16.367Z,12.56
2018-07-12T03:57:16.610Z,12.58
2018-07-12T03:58:16.607Z,12.58
2018-07-12T03:59:16.355Z,12.65
2018-07-12T04:00:16.335Z,12.62
2018-07-12T04:01:16.588Z,12.58
2018-07-12T04:02:16.588Z,12.59
2018-07-12T04:03:16.569Z,12.62
2018-07-12T04:04:16.563Z,12.65
2018-07-12T04:05:16.561Z,12.65
2018-07-12T04:06:16.551Z,12.58
2018-07-12T04:07:16.539Z,12.61
2018-07-12T04:08:16.536Z,12.58
2018-07-12T04:09:16.269Z,12.58
2018-07-12T04:10:16.520Z,12.59
2018-07-12T04:11:16.254Z,12.65
2018-07-12T04:12:16.505Z,12.53
2018-07-12T04:13:16.495Z,12.51
2018-07-12T04:14:16.232Z,12.43
2018-07-12T04:15:16.480Z,12.43
2018-07-12T04:16:16.252Z,12.4
2018-07-12T04:17:16.469Z,12.38
2018-07-12T04:18:16.233Z,12.29
2018-07-12T04:19:16.497Z,12.38
2018-07-12T04:20:16.441Z,12.33
2018-07-12T04:21:16.179Z,12.36
2018-07-12T04:22:16.425Z,12.33
2018-07-12T04:23:16.421Z,12.38
2018-07-12T04:24:16.417Z,12.33
2018-07-12T04:25:16.151Z,12.29
2018-07-12T04:26:16.403Z,12.28
2018-07-12T04:27:16.136Z,12.28
2018-07-12T04:28:16.384Z,12.31
2018-07-12T04:29:16.383Z,12.31
2018-07-12T04:30:16.374Z,12.23
2018-07-12T04:31:16.364Z,12.22
2018-07-12T04:32:16.360Z,12.29
2018-07-12T04:33:16.098Z,12.26
2018-07-12T04:34:16.357Z,12.31
2018-07-12T04:35:16.083Z,12.34
2018-07-12T04:36:16.330Z,12.4
2018-07-12T04:37:16.328Z,12.47
2018-07-12T04:38:16.058Z,12.43
2018-07-12T04:39:16.304Z,12.56
2018-07-12T04:40:16.306Z,12.63
2018-07-12T04:41:16.298Z,12.69
2018-07-12T04:42:16.286Z,12.83
2018-07-12T04:43:16.020Z,12.91
2018-07-12T04:44:16.013Z,12.95
2018-07-12T04:45:16.262Z,13.06
2018-07-12T04:46:16.006Z,13.09
2018-07-12T04:47:15.990Z,13.25
2018-07-12T04:48:16.240Z,13.31
2018-07-12T04:49:16.238Z,13.37
2018-07-12T04:50:16.225Z,13.5
2018-07-12T04:51:16.383Z,13.47
2018-07-12T04:52:16.214Z,13.53
2018-07-12T04:53:16.209Z,13.51
2018-07-12T04:54:16.201Z,13.48
2018-07-12T04:55:15.983Z,13.48
2018-07-12T04:56:16.192Z,13.45
2018-07-12T04:57:16.179Z,13.4
2018-07-12T04:58:16.603Z,13.39
2018-07-12T04:59:15.913Z,13.35
2018-07-12T05:00:16.156Z,13.28
2018-07-12T05:01:16.156Z,13.29
2018-07-12T05:02:16.148Z,13.31
2018-07-12T05:03:16.142Z,13.32
2018-07-12T05:04:15.921Z,13.35
2018-07-12T05:05:16.126Z,13.29
2018-07-12T05:06:15.863Z,13.32
2018-07-12T05:07:16.112Z,13.31
2018-07-12T05:08:15.943Z,13.31
2018-07-12T05:09:15.839Z,13.27
2018-07-12T05:10:15.839Z,13.39
2018-07-12T05:11:16.085Z,13.28
2018-07-12T05:12:15.821Z,13.29
2018-07-12T05:13:16.076Z,13.42
2018-07-12T05:14:16.065Z,13.42
2018-07-12T05:15:15.797Z,13.45
2018-07-12T05:16:16.223Z,13.45
2018-07-12T05:17:15.786Z,13.39
2018-07-12T05:18:16.038Z,13.39
2018-07-12T05:19:16.027Z,13.37
2018-07-12T05:20:16.064Z,13.39
2018-07-12T05:21:15.758Z,13.5
2018-07-12T05:22:16.016Z,13.45
2018-07-12T05:23:15.740Z,13.5
2018-07-12T05:24:15.737Z,13.51
2018-07-12T05:25:15.997Z,13.42
2018-07-12T05:26:15.722Z,13.45
2018-07-12T05:27:15.458Z,13.47
2018-07-12T05:28:15.453Z,13.55
2018-07-12T05:29:15.963Z,13.62
2018-07-12T05:30:15.955Z,13.69
2018-07-12T05:31:15.950Z,13.73
2018-07-12T05:32:15.944Z,13.78
2018-07-12T05:33:15.678Z,13.84
2018-07-12T05:34:15.671Z,13.86
2018-07-12T05:35:15.921Z,13.87
2018-07-12T05:36:15.916Z,13.9
2018-07-12T05:37:15.913Z,14.02
2018-07-12T05:38:15.900Z,14.08
2018-07-12T05:39:16.092Z,14.06
2018-07-12T05:40:15.888Z,14.15
2018-07-12T05:41:15.882Z,14.21
2018-07-12T05:42:15.616Z,14.26
2018-07-12T05:43:15.607Z,14.28
2018-07-12T05:44:15.601Z,14.27
2018-07-12T05:45:15.853Z,14.26
2018-07-12T05:46:15.596Z,14.27
2018-07-12T05:47:15.847Z,14.27
2018-07-12T05:48:15.578Z,14.34
2018-07-12T05:49:15.572Z,14.21
2018-07-12T05:50:15.828Z,14.2
2018-07-12T05:51:15.556Z,14.21
2018-07-12T05:52:15.555Z,14.27
2018-07-12T05:53:15.555Z,14.12
2018-07-12T05:54:15.283Z,14.11
2018-07-12T05:55:15.534Z,14.08
2018-07-12T05:56:15.788Z,14.12
2018-07-12T05:57:15.780Z,14.2
2018-07-12T05:58:15.770Z,14.08
2018-07-12T05:59:15.764Z,14.12
2018-07-12T06:00:15.762Z,14.23
2018-07-12T06:01:15.762Z,14.26
2018-07-12T06:02:15.494Z,14.26
2018-07-12T06:03:15.488Z,14.3
2018-07-12T06:04:15.735Z,14.53
2018-07-12T06:05:15.480Z,14.46
2018-07-12T06:06:15.722Z,14.49
2018-07-12T06:07:15.724Z,14.48
2018-07-12T06:08:15.711Z,14.48
2018-07-12T06:09:15.708Z,14.67
2018-07-12T06:10:15.450Z,14.64
2018-07-12T06:11:15.435Z,14.63
2018-07-12T06:12:15.683Z,14.63
2018-07-12T06:13:15.948Z,14.77
2018-07-12T06:14:15.683Z,14.67
2018-07-12T06:15:15.666Z,14.75
2018-07-12T06:16:15.577Z,14.95
2018-07-12T06:17:15.689Z,14.93
2018-07-12T06:18:15.655Z,14.89
2018-07-12T06:19:15.644Z,15.1
2018-07-12T06:20:15.385Z,14.95
2018-07-12T06:21:15.643Z,15.04
2018-07-12T06:22:15.632Z,15.01
2018-07-12T06:23:15.623Z,14.94
2018-07-12T06:24:15.616Z,14.89
2018-07-12T06:25:15.619Z,14.86
2018-07-12T06:26:15.351Z,14.86
2018-07-12T06:27:15.598Z,14.82
2018-07-12T06:28:15.337Z,14.71
2018-07-12T06:29:15.589Z,14.77
2018-07-12T06:30:15.589Z,14.64
2018-07-12T06:31:15.576Z,14.69
2018-07-12T06:32:15.574Z,14.74
2018-07-12T06:33:15.309Z,14.74
2018-07-12T06:34:15.563Z,14.74
2018-07-12T06:35:15.304Z,14.85
2018-07-12T06:36:15.547Z,14.82
2018-07-12T06:37:15.749Z,14.83
2018-07-12T06:38:15.537Z,14.9
2018-07-12T06:39:15.536Z,14.83
2018-07-12T06:40:15.275Z,14.8
2018-07-12T06:41:15.527Z,14.8
2018-07-12T06:42:15.513Z,14.8
2018-07-12T06:43:15.251Z,14.89
2018-07-12T06:44:15.246Z,14.95
2018-07-12T06:45:15.509Z,14.97
2018-07-12T06:46:15.494Z,14.97
2018-07-12T06:47:15.493Z,14.97
2018-07-12T06:48:15.481Z,15.04
2018-07-12T06:49:15.218Z,15.04
2018-07-12T06:50:15.473Z,15.01
2018-07-12T06:51:15.461Z,15.05
2018-07-12T06:52:15.464Z,15.02
2018-07-12T06:53:15.201Z,15.16
2018-07-12T06:54:15.447Z,15.16
2018-07-12T06:55:15.192Z,15.27
2018-07-12T06:56:15.183Z,15.25
2018-07-12T06:57:15.436Z,15.41
2018-07-12T06:58:15.425Z,15.49
2018-07-12T06:59:15.424Z,15.68
2018-07-12T07:00:15.422Z,15.89
2018-07-12T07:01:15.412Z,16.07
2018-07-12T07:02:15.152Z,16.21
2018-07-12T07:03:15.402Z,16.29
2018-07-12T07:04:15.398Z,16.42
2018-07-12T07:05:15.394Z,16.44
2018-07-12T07:06:15.391Z,16.3
2018-07-12T07:07:15.385Z,16.26
2018-07-12T07:08:15.118Z,16.14
2018-07-12T07:09:15.383Z,15.99
2018-07-12T07:10:15.375Z,15.92
2018-07-12T07:11:15.364Z,15.71
2018-07-12T07:12:15.355Z,15.44
2018-07-12T07:13:15.357Z,15.41
2018-07-12T07:14:15.353Z,15.27
2018-07-12T07:15:15.343Z,15.1
2018-07-12T07:16:15.082Z,15.02
2018-07-12T07:17:15.078Z,15.12
2018-07-12T07:18:15.331Z,15.08
2018-07-12T07:19:15.339Z,15.26
2018-07-12T07:20:15.627Z,15.34
2018-07-12T07:21:15.359Z,15.51
2018-07-12T07:22:15.310Z,15.63
2018-07-12T07:23:15.299Z,15.68
2018-07-12T07:24:15.042Z,15.77
2018-07-12T07:25:15.292Z,15.89
2018-07-12T07:26:15.076Z,15.92
2018-07-12T07:27:15.284Z,16.11
2018-07-12T07:28:15.278Z,16.36
2018-07-12T07:29:15.017Z,16.73
2018-07-12T07:30:15.018Z,17.05
2018-07-12T07:31:15.267Z,17.2
2018-07-12T07:32:15.007Z,17.79
2018-07-12T07:33:14.741Z,18.11
2018-07-12T07:34:15.392Z,18.5
2018-07-12T07:35:14.992Z,18.76
2018-07-12T07:36:15.248Z,19.09
2018-07-12T07:37:15.242Z,18.94
2018-07-12T07:38:15.240Z,19.02
2018-07-12T07:39:15.238Z,19.25
2018-07-12T07:40:15.228Z,19.56
2018-07-12T07:41:15.235Z,19.78
2018-07-12T07:42:14.964Z,19.7
2018-07-12T07:43:15.259Z,19.52
2018-07-12T07:44:14.961Z,19.28
2018-07-12T07:45:15.223Z,19.3
2018-07-12T07:46:15.221Z,19.17
2018-07-12T07:47:14.953Z,18.94
2018-07-12T07:48:15.210Z,18.6
2018-07-12T07:49:15.313Z,18.5
2018-07-12T07:50:15.202Z,18.41
2018-07-12T07:51:15.204Z,18.27
2018-07-12T07:52:15.201Z,18.2
2018-07-12T07:53:14.942Z,18.21
2018-07-12T07:54:14.931Z,18.21
2018-07-12T07:55:14.931Z,18.17
2018-07-12T07:56:15.190Z,18.19
2018-07-12T07:57:15.064Z,18.21
2018-07-12T07:58:15.179Z,18.1
2018-07-12T07:59:14.665Z,18.16
2018-07-12T08:00:14.916Z,18.14
2018-07-12T08:01:15.174Z,18.23
2018-07-12T08:02:14.918Z,18.31
2018-07-12T08:03:15.225Z,18.32
2018-07-12T08:04:15.168Z,18.36
2018-07-12T08:05:15.162Z,18.49
2018-07-12T08:06:15.164Z,18.63
2018-07-12T08:07:14.899Z,18.51
2018-07-12T08:08:15.167Z,18.71
2018-07-12T08:09:14.898Z,18.53
2018-07-12T08:10:15.149Z,18.45
2018-07-12T08:11:15.158Z,18.5
2018-07-12T08:12:15.145Z,18.51
2018-07-12T08:13:15.148Z,18.69
2018-07-12T08:14:15.140Z,18.61
2018-07-12T08:15:14.882Z,18.72
2018-07-12T08:16:15.208Z,18.68
2018-07-12T08:17:14.878Z,18.78
2018-07-12T08:18:15.132Z,18.69
2018-07-12T08:19:15.126Z,18.76
2018-07-12T08:20:15.128Z,18.81
2018-07-12T08:21:15.124Z,18.96
2018-07-12T08:22:15.128Z,19.05
2018-07-12T08:23:15.116Z,19.09
2018-07-12T08:24:14.864Z,18.99
2018-07-12T08:25:14.860Z,18.75
2018-07-12T08:26:14.857Z,18.5
2018-07-12T08:27:14.857Z,18.47
2018-07-12T08:28:15.105Z,18.51
2018-07-12T08:29:15.107Z,18.5
2018-07-12T08:30:14.846Z,18.59
2018-07-12T08:31:15.351Z,18.53
2018-07-12T08:32:15.102Z,18.69
2018-07-12T08:33:15.164Z,18.63
2018-07-12T08:34:15.098Z,18.75
2018-07-12T08:35:15.095Z,18.76
2018-07-12T08:36:15.175Z,18.61
2018-07-12T08:37:15.088Z,18.57
2018-07-12T08:38:15.091Z,18.54
2018-07-12T08:39:15.080Z,18.34
2018-07-12T08:40:15.077Z,18.23
2018-07-12T08:41:15.080Z,18.11
2018-07-12T08:42:15.074Z,17.96
2018-07-12T08:43:15.080Z,17.86
2018-07-12T08:44:15.071Z,17.68
2018-07-12T08:45:15.069Z,17.57
2018-07-12T08:46:14.846Z,17.4
2018-07-12T08:47:15.066Z,17.25
2018-07-12T08:48:14.800Z,17.13
2018-07-12T08:49:15.061Z,17.1
2018-07-12T08:50:15.052Z,16.9
2018-07-12T08:51:14.796Z,16.88
2018-07-12T08:52:15.054Z,16.74
2018-07-12T08:53:15.451Z,16.67
2018-07-12T08:54:14.527Z,16.72
2018-07-12T08:55:15.094Z,16.7
2018-07-12T08:56:15.037Z,16.74
2018-07-12T08:57:14.777Z,16.85
2018-07-12T08:58:15.024Z,16.92
2018-07-12T08:59:15.026Z,17.07
2018-07-12T09:00:15.027Z,17.24
2018-07-12T09:01:15.016Z,17.4
2018-07-12T09:02:15.019Z,17.54
2018-07-12T09:03:15.018Z,17.63
2018-07-12T09:04:14.751Z,17.66
2018-07-12T09:05:15.016Z,17.68
2018-07-12T09:06:14.746Z,17.71
2018-07-12T09:07:14.739Z,17.74
2018-07-12T09:08:14.995Z,17.8
2018-07-12T09:09:14.996Z,17.88
2018-07-12T09:10:14.987Z,17.95
2018-07-12T09:11:14.730Z,17.99
2018-07-12T09:12:15.038Z,17.95
2018-07-12T09:13:14.979Z,17.84
2018-07-12T09:14:14.976Z,17.77
2018-07-12T09:15:14.722Z,17.65
2018-07-12T09:16:14.970Z,17.81
2018-07-12T09:17:14.712Z,17.86
2018-07-12T09:18:14.965Z,17.88
2018-07-12T09:19:14.955Z,17.95
2018-07-12T09:20:14.960Z,18.01
2018-07-12T09:21:14.698Z,18.1
2018-07-12T09:22:14.951Z,18.16
2018-07-12T09:23:14.947Z,18.2
2018-07-12T09:24:14.683Z,18.21
2018-07-12T09:25:14.937Z,18.24
2018-07-12T09:26:14.943Z,18.17
2018-07-12T09:27:14.966Z,18.2
2018-07-12T09:28:14.932Z,18.23
2018-07-12T09:29:15.135Z,18.17
2018-07-12T09:30:14.930Z,18.01
2018-07-12T09:31:14.675Z,17.99
2018-07-12T09:32:14.921Z,17.92
2018-07-12T09:33:14.659Z,17.8
2018-07-12T09:34:14.658Z,17.79
2018-07-12T09:35:14.913Z,17.8
2018-07-12T09:36:14.652Z,17.71
2018-07-12T09:37:14.647Z,17.63
2018-07-12T09:38:14.649Z,17.68
2018-07-12T09:39:14.905Z,17.66
2018-07-12T09:40:14.900Z,17.68
2018-07-12T09:41:14.899Z,17.87
2018-07-12T09:42:14.630Z,17.96
2018-07-12T09:43:14.922Z,17.94
2018-07-12T09:44:14.632Z,17.86
2018-07-12T09:45:14.672Z,17.9
2018-07-12T09:46:14.880Z,17.9
2018-07-12T09:47:14.981Z,17.76
2018-07-12T09:48:14.888Z,17.77
2018-07-12T09:49:15.516Z,17.76
2018-07-12T09:50:14.609Z,17.69
2018-07-12T09:51:14.866Z,17.57
2018-07-12T09:52:14.860Z,17.47
2018-07-12T09:53:14.861Z,17.45
2018-07-12T09:54:14.859Z,17.39
2018-07-12T09:55:14.852Z,17.35
2018-07-12T09:56:15.409Z,17.27
2018-07-12T09:57:14.840Z,17.25
2018-07-12T09:58:14.835Z,17.2
2018-07-12T09:59:14.837Z,17.3
2018-07-12T10:00:14.838Z,17.2
2018-07-12T10:01:14.672Z,17.18
2018-07-12T10:02:14.828Z,17.15
2018-07-12T10:03:14.819Z,17.22
2018-07-12T10:04:14.815Z,17.2
2018-07-12T10:05:14.561Z,17.24
2018-07-12T10:06:14.817Z,17.25
2018-07-12T10:07:14.814Z,17.21
2018-07-12T10:08:14.810Z,17.2
2018-07-12T10:09:14.797Z,17.25
2018-07-12T10:10:14.804Z,17.39
2018-07-12T10:11:14.801Z,17.22
2018-07-12T10:12:14.536Z,17.25
2018-07-12T10:13:14.787Z,17.17
2018-07-12T10:14:14.530Z,17.1
2018-07-12T10:15:14.780Z,17.02
2018-07-12T10:16:14.775Z,17.09
2018-07-12T10:17:14.784Z,17.03
2018-07-12T10:18:14.517Z,17.02
2018-07-12T10:19:14.767Z,17.02
2018-07-12T10:20:14.503Z,16.95
2018-07-12T10:21:14.763Z,17.03
2018-07-12T10:22:14.238Z,16.94
2018-07-12T10:23:14.750Z,17.1
2018-07-12T10:24:14.749Z,16.94
2018-07-12T10:25:14.741Z,17.1
2018-07-12T10:26:14.483Z,16.95
2018-07-12T10:27:14.736Z,17.03
2018-07-12T10:28:14.733Z,17.18
2018-07-12T10:29:14.727Z,17.21
2018-07-12T10:30:14.725Z,17.2
2018-07-12T10:31:14.721Z,17.17
2018-07-12T10:32:14.461Z,17.22
2018-07-12T10:33:14.720Z,17.21
2018-07-12T10:34:14.461Z,17.22
2018-07-12T10:35:14.704Z,17.38
2018-07-12T10:36:14.704Z,17.55
2018-07-12T10:37:14.700Z,17.63
2018-07-12T10:38:14.442Z,17.62
2018-07-12T10:39:14.692Z,17.71
2018-07-12T10:40:14.430Z,17.71
2018-07-12T10:41:14.173Z,17.79
2018-07-12T10:42:14.426Z,17.92
2018-07-12T10:43:14.690Z,18.05
2018-07-12T10:44:14.163Z,18.03
2018-07-12T10:45:14.672Z,18.2
2018-07-12T10:46:14.674Z,18.14
2018-07-12T10:47:14.664Z,18.14
2018-07-12T10:48:14.664Z,18.14
2018-07-12T10:49:14.660Z,18.1
2018-07-12T10:50:14.397Z,18.19
2018-07-12T10:51:14.400Z,18.14
2018-07-12T10:52:14.652Z,18.2
2018-07-12T10:53:14.392Z,18.21
2018-07-12T10:54:14.642Z,18.17
2018-07-12T10:55:14.642Z,18.02
2018-07-12T10:56:14.644Z,17.98
2018-07-12T10:57:14.641Z,17.87
2018-07-12T10:58:14.636Z,17.87
2018-07-12T10:59:14.631Z,17.63
2018-07-12T11:00:14.623Z,17.6
2018-07-12T11:01:14.622Z,17.52
2018-07-12T11:02:14.361Z,17.46
2018-07-12T11:03:14.361Z,17.4
2018-07-12T11:04:14.361Z,17.22
2018-07-12T11:05:14.354Z,17.25
2018-07-12T11:06:14.607Z,17.03
2018-07-12T11:07:14.604Z,17.03
2018-07-12T11:08:14.345Z,16.97
2018-07-12T11:09:14.808Z,17
2018-07-12T11:10:14.600Z,16.9
2018-07-12T11:11:14.332Z,16.92
2018-07-12T11:12:14.598Z,16.94
2018-07-12T11:13:14.589Z,16.94
2018-07-12T11:14:14.581Z,16.95
2018-07-12T11:15:14.574Z,16.99
2018-07-12T11:16:14.570Z,16.88
2018-07-12T11:17:14.311Z,16.97
2018-07-12T11:18:14.307Z,17.03
2018-07-12T11:19:14.561Z,17.21
2018-07-12T11:20:14.040Z,17.21
2018-07-12T11:21:14.827Z,17.4
2018-07-12T11:22:14.560Z,17.42
2018-07-12T11:23:14.546Z,17.4
2018-07-12T11:24:14.544Z,17.43
2018-07-12T11:25:14.535Z,17.57
2018-07-12T11:26:14.546Z,17.58
2018-07-12T11:27:14.528Z,17.55
2018-07-12T11:28:14.797Z,17.71
2018-07-12T11:29:14.527Z,17.76
2018-07-12T11:30:14.616Z,17.88
2018-07-12T11:31:14.523Z,18.06
2018-07-12T11:32:14.261Z,18.26
2018-07-12T11:33:14.512Z,18.54
2018-07-12T11:34:14.252Z,18.78
2018-07-12T11:35:14.505Z,19.07
2018-07-12T11:36:14.660Z,19.32
2018-07-12T11:37:14.360Z,19.28
2018-07-12T11:38:14.238Z,19.25
2018-07-12T11:39:14.242Z,19.19
2018-07-12T11:40:14.507Z,19.06
2018-07-12T11:41:14.491Z,18.89
2018-07-12T11:42:14.484Z,18.69
2018-07-12T11:43:14.489Z,18.68
2018-07-12T11:44:14.484Z,18.63
2018-07-12T11:45:14.478Z,18.53
2018-07-12T11:46:14.473Z,18.34
2018-07-12T11:47:14.481Z,18.27
2018-07-12T11:48:14.469Z,18.11
2018-07-12T11:49:14.473Z,18.05
2018-07-12T11:50:14.466Z,17.87
2018-07-12T11:51:14.475Z,17.8
2018-07-12T11:52:14.471Z,17.69
2018-07-12T11:53:14.459Z,17.68
2018-07-12T11:54:14.460Z,17.55
2018-07-12T11:55:14.453Z,17.57
2018-07-12T11:56:14.191Z,17.54
2018-07-12T11:57:14.196Z,17.55
2018-07-12T11:58:14.185Z,17.6
2018-07-12T11:59:14.180Z,17.77
2018-07-12T12:00:14.433Z,17.94
2018-07-12T12:01:14.493Z,18.05
2018-07-12T12:02:14.425Z,18.2
2018-07-12T12:03:14.164Z,18.47
2018-07-12T12:04:14.420Z,18.74
2018-07-12T12:05:14.415Z,18.97
2018-07-12T12:06:14.417Z,19.16
2018-07-12T12:07:14.413Z,19.24
2018-07-12T12:08:14.408Z,19.24
2018-07-12T12:09:14.405Z,19.13
2018-07-12T12:10:14.400Z,19.15
2018-07-12T12:11:14.406Z,19.12
2018-07-12T12:12:14.406Z,19.06
2018-07-12T12:13:14.399Z,19.06
2018-07-12T12:14:14.402Z,18.89
2018-07-12T12:15:14.139Z,18.97
2018-07-12T12:16:14.135Z,18.99
2018-07-12T12:17:14.395Z,18.97
2018-07-12T12:18:14.385Z,19.07
2018-07-12T12:19:14.387Z,19.07
2018-07-12T12:20:14.383Z,19.02
2018-07-12T12:21:14.379Z,19.16
2018-07-12T12:22:14.376Z,19.28
2018-07-12T12:23:14.375Z,19.19
2018-07-12T12:24:14.371Z,19.16
2018-07-12T12:25:14.376Z,19.17
2018-07-12T12:26:14.107Z,19.28
2018-07-12T12:27:14.362Z,19.25
2018-07-12T12:28:14.105Z,19.37
2018-07-12T12:29:14.103Z,19.46
2018-07-12T12:30:14.354Z,19.53
2018-07-12T12:31:14.390Z,19.71
2018-07-12T12:32:14.354Z,20.05
2018-07-12T12:33:14.356Z,20.27
2018-07-12T12:34:14.362Z,20.58
2018-07-12T12:35:14.090Z,20.67
2018-07-12T12:36:14.348Z,20.86
2018-07-12T12:37:14.350Z,20.85
2018-07-12T12:38:14.341Z,21.03
2018-07-12T12:39:14.087Z,21.15
2018-07-12T12:40:14.341Z,21.11
2018-07-12T12:41:14.107Z,21.08
2018-07-12T12:42:14.341Z,21.12
2018-07-12T12:43:14.084Z,21.16
2018-07-12T12:44:14.079Z,21.15
2018-07-12T12:45:14.339Z,21.22
2018-07-12T12:46:14.075Z,21.31
2018-07-12T12:47:14.340Z,21.23
2018-07-12T12:48:14.078Z,21.4
2018-07-12T12:49:14.073Z,21.48
2018-07-12T12:50:14.073Z,21.62
2018-07-12T12:51:14.329Z,21.7
2018-07-12T12:52:14.330Z,21.85
2018-07-12T12:53:14.334Z,21.89
2018-07-12T12:54:14.323Z,21.77
2018-07-12T12:55:14.325Z,21.71